Time,TemperatureF,DewpointF,PressureIn,WindDirection,WindDirectionDegrees,WindSpeedMPH,WindSpeedGustMPH,Humidity,HourlyPrecipIn,Conditions,Clouds,dailyrainin,SolarRadiationWatts/m^2,SoftwareType,DateUTC
2013-09-24 00:13:00,62.7,60.0,29.96,East,92,0.0,-999.0,91,-99.99,,,0.00,0,weatherlink.com 1.10,2013-09-24 05:13:00,
2013-09-24 00:28:00,62.2,59.0,29.95,East,92,0.0,-999.0,90,-99.99,,,0.00,0,weatherlink.com 1.10,2013-09-24 05:28:00,
2013-09-24 00:43:00,62.2,59.0,29.95,East,92,0.0,-999.0,90,-99.99,,,0.00,0,weatherlink.com 1.10,2013-09-24 05:43:00,
2013-09-24 00:58:00,62.5,60.0,29.96,East,92,0.0,-999.0,92,-99.99,,,0.00,0,weatherlink.com 1.10,2013-09-24 05:58:00,
2013-09-24 01:13:00,62.0,60.0,29.96,East,92,0.0,-999.0,92,-99.99,,,0.00,0,weatherlink.com 1.10,2013-09-24 06:13:00,
2013-09-24 01:28:00,60.9,59.0,29.96,East,92,0.0,-999.0,93,-99.99,,,0.00,0,weatherlink.com 1.10,2013-09-24 06:28:00,
2013-09-24 01:43:00,60.5,59.0,29.96,East,92,0.0,-999.0,93,-99.99,,,0.00,0,weatherlink.com 1.10,2013-09-24 06:43:00,
2013-09-24 01:58:00,60.2,58.0,29.96,East,92,0.0,-999.0,93,-99.99,,,0.00,0,weatherlink.com 1.10,2013-09-24 06:58:00,
2013-09-24 02:13:00,60.0,58.0,29.96,East,92,0.0,-999.0,94,-99.99,,,0.00,0,weatherlink.com 1.10,2013-09-24 07:13:00,
2013-09-24 02:28:00,60.2,59.0,29.95,East,92,0.0,-999.0,95,-99.99,,,0.00,0,weatherlink.com 1.10,2013-09-24 07:28:00,
2013-09-24 02:43:00,60.5,59.0,29.95,East,92,0.0,-999.0,94,-99.99,,,0.00,0,weatherlink.com 1.10,2013-09-24 07:43:00,
2013-09-24 02:58:00,60.5,59.0,29.95,East,92,0.0,-999.0,94,-99.99,,,0.00,0,weatherlink.com 1.10,2013-09-24 07:58:00,
2013-09-24 03:13:00,60.7,59.0,29.94,East,92,0.0,-999.0,95,-99.99,,,0.00,0,weatherlink.com 1.10,2013-09-24 08:13:00,
2013-09-24 03:28:00,60.8,59.0,29.94,East,92,0.0,-999.0,95,-99.99,,,0.00,0,weatherlink.com 1.10,2013-09-24 08:28:00,
2013-09-24 03:43:00,60.8,59.0,29.94,East,92,0.0,-999.0,95,-99.99,,,0.00,0,weatherlink.com 1.10,2013-09-24 08:43:00,
2013-09-24 03:58:00,60.8,59.0,29.95,East,92,0.0,-999.0,95,-99.99,,,0.00,0,weatherlink.com 1.10,2013-09-24 08:58:00,
2013-09-24 04:28:00,60.0,59.0,29.94,East,92,1.0,-999.0,96,-99.99,,,0.00,0,weatherlink.com 1.10,2013-09-24 09:28:00,
2013-09-24 04:43:00,59.8,59.0,29.94,East,92,0.0,-999.0,96,-99.99,,,0.00,0,weatherlink.com 1.10,2013-09-24 09:43:00,
2013-09-24 04:58:00,59.8,59.0,29.94,East,92,0.0,-999.0,96,-99.99,,,0.00,0,weatherlink.com 1.10,2013-09-24 09:58:00,
2013-09-24 05:13:00,59.7,59.0,29.93,East,92,0.0,-999.0,96,-99.99,,,0.00,0,weatherlink.com 1.10,2013-09-24 10:13:00,
2013-09-24 05:28:00,59.5,58.0,29.93,East,92,0.0,-999.0,96,-99.99,,,0.00,0,weatherlink.com 1.10,2013-09-24 10:28:00,
2013-09-24 05:43:00,59.8,59.0,29.93,East,92,0.0,-999.0,96,-99.99,,,0.00,0,weatherlink.com 1.10,2013-09-24 10:43:00,
2013-09-24 05:58:00,60.1,59.0,29.93,East,92,0.0,-999.0,96,-99.99,,,0.00,0,weatherlink.com 1.10,2013-09-24 10:58:00,
2013-09-24 06:13:00,59.9,59.0,29.93,East,92,0.0,-999.0,96,-99.99,,,0.00,0,weatherlink.com 1.10,2013-09-24 11:13:00,
2013-09-24 06:28:00,59.6,59.0,29.93,East,92,0.0,-999.0,96,-99.99,,,0.00,0,weatherlink.com 1.10,2013-09-24 11:28:00,
2013-09-24 06:43:00,59.4,58.0,29.92,East,92,0.0,-999.0,96,-99.99,,,0.00,0,weatherlink.com 1.10,2013-09-24 11:43:00,
2013-09-24 06:58:00,59.2,58.0,29.92,East,92,0.0,-999.0,96,-99.99,,,0.00,0,weatherlink.com 1.10,2013-09-24 11:58:00,
2013-09-24 07:13:00,59.4,59.0,29.92,East,92,0.0,-999.0,97,-99.99,,,0.00,11,weatherlink.com 1.10,2013-09-24 12:13:00,
2013-09-24 07:28:00,59.6,59.0,29.92,East,92,0.0,-999.0,97,-99.99,,,0.00,21,weatherlink.com 1.10,2013-09-24 12:28:00,
2013-09-24 07:43:00,59.8,59.0,29.92,East,92,0.0,-999.0,97,-99.99,,,0.00,51,weatherlink.com 1.10,2013-09-24 12:43:00,
2013-09-24 07:58:00,60.0,59.0,29.92,East,92,0.0,-999.0,97,-99.99,,,0.00,100,weatherlink.com 1.10,2013-09-24 12:58:00,
2013-09-24 08:13:00,59.8,59.0,29.92,East,92,0.0,-999.0,97,-99.99,,,0.00,127,weatherlink.com 1.10,2013-09-24 13:13:00,
2013-09-24 08:28:00,60.0,59.0,29.92,East,92,0.0,-999.0,97,-99.99,,,0.00,239,weatherlink.com 1.10,2013-09-24 13:28:00,
2013-09-24 08:43:00,60.5,60.0,29.92,East,92,0.0,-999.0,97,-99.99,,,0.00,63,weatherlink.com 1.10,2013-09-24 13:43:00,
2013-09-24 08:58:00,61.4,61.0,29.92,East,92,0.0,-999.0,97,-99.99,,,0.00,107,weatherlink.com 1.10,2013-09-24 13:58:00,
2013-09-24 09:13:00,61.9,61.0,29.92,East,92,0.0,-999.0,97,-99.99,,,0.00,343,weatherlink.com 1.10,2013-09-24 14:13:00,
2013-09-24 09:28:00,63.2,63.0,29.92,East,92,0.0,-999.0,98,-99.99,,,0.00,392,weatherlink.com 1.10,2013-09-24 14:28:00,
2013-09-24 09:43:00,63.8,63.0,29.92,East,92,0.0,-999.0,97,-99.99,,,0.00,434,weatherlink.com 1.10,2013-09-24 14:43:00,
2013-09-24 09:59:00,64.8,64.0,29.92,East,92,0.0,-999.0,96,-99.99,,,0.00,475,weatherlink.com 1.10,2013-09-24 14:59:00,
2013-09-24 10:14:00,66.3,65.0,29.92,East,92,0.0,-999.0,96,-99.99,,,0.00,515,weatherlink.com 1.10,2013-09-24 15:14:00,
2013-09-24 10:29:00,68.5,66.0,29.91,East,92,0.0,-999.0,91,-99.99,,,0.00,548,weatherlink.com 1.10,2013-09-24 15:29:00,
2013-09-24 10:44:00,71.2,66.0,29.91,East,92,0.0,-999.0,82,-99.99,,,0.00,589,weatherlink.com 1.10,2013-09-24 15:44:00,
2013-09-24 10:59:00,73.4,65.0,29.91,East,92,0.0,-999.0,75,-99.99,,,0.00,622,weatherlink.com 1.10,2013-09-24 15:59:00,
2013-09-24 11:14:00,74.9,65.0,29.91,East,92,0.0,-999.0,71,-99.99,,,0.00,652,weatherlink.com 1.10,2013-09-24 16:14:00,
2013-09-24 11:29:00,75.3,64.0,29.90,East,92,0.0,-999.0,69,-99.99,,,0.00,679,weatherlink.com 1.10,2013-09-24 16:29:00,
2013-09-24 11:44:00,75.6,63.0,29.90,East,88,2.0,-999.0,66,-99.99,,,0.00,698,weatherlink.com 1.10,2013-09-24 16:44:00,
2013-09-24 11:59:00,76.0,64.0,29.90,East,88,0.0,-999.0,67,-99.99,,,0.00,715,weatherlink.com 1.10,2013-09-24 16:59:00,
2013-09-24 12:14:00,76.7,63.0,29.90,East,88,0.0,-999.0,63,-99.99,,,0.00,731,weatherlink.com 1.10,2013-09-24 17:14:00,
2013-09-24 12:29:00,77.7,65.0,29.89,East,84,0.0,-999.0,64,-99.99,,,0.00,744,weatherlink.com 1.10,2013-09-24 17:29:00,
2013-09-24 12:44:00,77.8,63.0,29.89,ENE,74,3.0,-999.0,61,-99.99,,,0.00,751,weatherlink.com 1.10,2013-09-24 17:44:00,
2013-09-24 12:59:00,78.5,62.0,29.89,ENE,70,5.0,-999.0,57,-99.99,,,0.00,758,weatherlink.com 1.10,2013-09-24 17:59:00,
2013-09-24 13:14:00,78.8,63.0,29.89,ENE,57,0.0,-999.0,58,-99.99,,,0.00,758,weatherlink.com 1.10,2013-09-24 18:14:00,
2013-09-24 13:29:00,79.4,61.0,29.88,ENE,57,2.0,-999.0,54,-99.99,,,0.00,788,weatherlink.com 1.10,2013-09-24 18:29:00,
2013-09-24 13:44:00,80.1,64.0,29.88,ENE,57,0.0,-999.0,58,-99.99,,,0.00,134,weatherlink.com 1.10,2013-09-24 18:44:00,
2013-09-24 13:59:00,79.4,63.0,29.87,ENE,57,2.0,-999.0,58,-99.99,,,0.00,847,weatherlink.com 1.10,2013-09-24 18:59:00,
2013-09-24 14:14:00,79.9,62.0,29.86,ENE,57,0.0,-999.0,55,-99.99,,,0.00,163,weatherlink.com 1.10,2013-09-24 19:14:00,
2013-09-24 14:29:00,80.2,63.0,29.86,ENE,57,0.0,-999.0,55,-99.99,,,0.00,213,weatherlink.com 1.10,2013-09-24 19:29:00,
2013-09-24 14:44:00,80.2,63.0,29.86,ENE,57,0.0,-999.0,56,-99.99,,,0.00,227,weatherlink.com 1.10,2013-09-24 19:44:00,
2013-09-24 14:59:00,80.1,62.0,29.85,ENE,57,0.0,-999.0,55,-99.99,,,0.00,204,weatherlink.com 1.10,2013-09-24 19:59:00,
2013-09-24 15:15:00,81.0,63.0,29.85,ENE,57,2.0,-999.0,55,-99.99,,,0.00,135,weatherlink.com 1.10,2013-09-24 20:15:00,
2013-09-24 15:30:00,80.9,63.0,29.85,ENE,57,2.0,-999.0,54,-99.99,,,0.00,640,weatherlink.com 1.10,2013-09-24 20:30:00,
2013-09-24 15:45:00,80.9,63.0,29.84,ENE,57,3.0,-999.0,55,-99.99,,,0.00,116,weatherlink.com 1.10,2013-09-24 20:45:00,
2013-09-24 16:00:00,80.6,63.0,29.84,ENE,57,5.0,-999.0,56,-99.99,,,0.00,526,weatherlink.com 1.10,2013-09-24 21:00:00,
2013-09-24 16:15:00,81.0,63.0,29.84,ENE,57,5.0,-999.0,55,-99.99,,,0.00,482,weatherlink.com 1.10,2013-09-24 21:15:00,
2013-09-24 16:30:00,81.1,63.0,29.83,ENE,57,4.0,-999.0,55,-99.99,,,0.00,424,weatherlink.com 1.10,2013-09-24 21:30:00,
2013-09-24 16:45:00,81.1,63.0,29.83,ENE,57,1.0,-999.0,54,-99.99,,,0.00,378,weatherlink.com 1.10,2013-09-24 21:45:00,
2013-09-24 17:00:00,81.3,63.0,29.83,ENE,57,3.0,-999.0,54,-99.99,,,0.00,338,weatherlink.com 1.10,2013-09-24 22:00:00,
2013-09-24 17:15:00,81.5,60.0,29.83,NNW,333,4.0,-999.0,49,-99.99,,,0.00,301,weatherlink.com 1.10,2013-09-24 22:15:00,
2013-09-24 17:30:00,81.2,60.0,29.83,NW,319,9.0,-999.0,48,-99.99,,,0.00,250,weatherlink.com 1.10,2013-09-24 22:30:00,
2013-09-24 17:45:00,80.7,59.0,29.83,NW,311,6.0,-999.0,48,-99.99,,,0.00,44,weatherlink.com 1.10,2013-09-24 22:45:00,
2013-09-24 18:00:00,79.8,58.0,29.83,NW,307,5.0,-999.0,48,-99.99,,,0.00,49,weatherlink.com 1.10,2013-09-24 23:00:00,
2013-09-24 18:15:00,79.2,58.0,29.84,NW,307,0.0,-999.0,49,-99.99,,,0.00,26,weatherlink.com 1.10,2013-09-24 23:15:00,
2013-09-24 18:30:00,78.3,59.0,29.83,NW,307,4.0,-999.0,51,-99.99,,,0.00,19,weatherlink.com 1.10,2013-09-24 23:30:00,
2013-09-24 18:45:00,77.4,58.0,29.84,NW,307,7.0,-999.0,52,-99.99,,,0.00,12,weatherlink.com 1.10,2013-09-24 23:45:00,
2013-09-24 19:00:00,76.6,59.0,29.84,WNW,300,5.0,-999.0,55,-99.99,,,0.00,0,weatherlink.com 1.10,2013-09-25 00:00:00,
2013-09-24 19:15:00,75.6,59.0,29.84,WNW,300,5.0,-999.0,57,-99.99,,,0.00,0,weatherlink.com 1.10,2013-09-25 00:15:00,
2013-09-24 19:30:00,74.6,60.0,29.85,NW,314,5.0,-999.0,60,-99.99,,,0.00,0,weatherlink.com 1.10,2013-09-25 00:30:00,
2013-09-24 19:45:00,73.9,59.0,29.85,NW,306,9.0,-999.0,61,-99.99,,,0.00,0,weatherlink.com 1.10,2013-09-25 00:45:00,
2013-09-24 20:00:00,73.3,60.0,29.85,NW,306,2.0,-999.0,63,-99.99,,,0.00,0,weatherlink.com 1.10,2013-09-25 01:00:00,
2013-09-24 20:15:00,72.5,60.0,29.85,NW,306,6.0,-999.0,65,-99.99,,,0.00,0,weatherlink.com 1.10,2013-09-25 01:15:00,
2013-09-24 20:30:00,71.7,60.0,29.86,NW,306,4.0,-999.0,66,-99.99,,,0.00,0,weatherlink.com 1.10,2013-09-25 01:30:00,
2013-09-24 20:45:00,71.1,60.0,29.86,NW,306,0.0,-999.0,68,-99.99,,,0.00,0,weatherlink.com 1.10,2013-09-25 01:45:00,
2013-09-24 21:00:00,70.6,60.0,29.86,NW,306,0.0,-999.0,69,-99.99,,,0.00,0,weatherlink.com 1.10,2013-09-25 02:00:00,
2013-09-24 21:15:00,70.1,59.0,29.86,NW,306,0.0,-999.0,69,-99.99,,,0.00,0,weatherlink.com 1.10,2013-09-25 02:15:00,
2013-09-24 21:30:00,69.6,60.0,29.87,NW,306,0.0,-999.0,71,-99.99,,,0.00,0,weatherlink.com 1.10,2013-09-25 02:30:00,
2013-09-24 21:45:00,69.1,59.0,29.87,NW,306,0.0,-999.0,71,-99.99,,,0.00,0,weatherlink.com 1.10,2013-09-25 02:45:00,
2013-09-24 22:00:00,68.6,60.0,29.87,NW,306,0.0,-999.0,73,-99.99,,,0.00,0,weatherlink.com 1.10,2013-09-25 03:00:00,
2013-09-24 22:15:00,68.0,59.0,29.87,NW,306,0.0,-999.0,74,-99.99,,,0.00,0,weatherlink.com 1.10,2013-09-25 03:15:00,
2013-09-24 22:30:00,67.6,59.0,29.87,NW,306,0.0,-999.0,75,-99.99,,,0.00,0,weatherlink.com 1.10,2013-09-25 03:30:00,
2013-09-24 22:45:00,67.4,59.0,29.86,NW,306,0.0,-999.0,75,-99.99,,,0.00,0,weatherlink.com 1.10,2013-09-25 03:45:00,
2013-09-24 23:00:00,67.2,59.0,29.86,NW,306,0.0,-999.0,76,-99.99,,,0.00,0,weatherlink.com 1.10,2013-09-25 04:00:00,
2013-09-24 23:15:00,67.2,59.0,29.86,NW,306,0.0,-999.0,76,-99.99,,,0.00,0,weatherlink.com 1.10,2013-09-25 04:15:00,
2013-09-24 23:30:00,66.9,59.0,29.86,NW,306,0.0,-999.0,76,-99.99,,,0.00,0,weatherlink.com 1.10,2013-09-25 04:30:00,
2013-09-24 23:45:00,66.8,59.0,29.86,NW,306,0.0,-999.0,77,-99.99,,,0.00,0,weatherlink.com 1.10,2013-09-25 04:45:00,